| time (UTC) | temp F | wind direction | speed knots | gust knots | rain 1hr in | rain 24hr in | rain mn in | humidity % | barometer mb |
| 20260509064417 | 49 | 320 | 1.7 | 3.5 | 0.06 | 0.06 | 0.06 | 90 | 1020.0 |
| 20260509063418 | 49 | 342 | 3.5 | 5.2 | 0.05 | 0.05 | 0.05 | 90 | 1020.0 |
| 20260509061416 | 49 | 0.0 | 0.9 | 0.02 | 0.02 | 0.02 | 89 | 1020.3 | |
| 20260509060417 | 49 | 0.0 | 0.0 | 0.02 | 0.02 | 0.02 | 89 | 1020.2 | |
| 20260509054417 | 49 | 0.0 | 0.0 | 0.00 | 0.00 | 0.00 | 88 | 1020.0 | |
| 20260509053417 | 49 | 320 | 1.7 | 1.7 | 0.00 | 0.00 | 0.00 | 88 | 1020.0 |
| 20260509052417 | 49 | 320 | 0.9 | 1.7 | 0.00 | 0.00 | 0.00 | 88 | 1019.9 |
| 20260509051417 | 49 | 0.0 | 0.0 | 0.00 | 0.00 | 0.00 | 88 | 1019.9 | |
| 20260509050417 | 49 | 0.0 | 0.0 | 0.00 | 0.00 | 0.00 | 87 | 1019.9 | |
| 20260509045417 | 49 | 320 | 0.9 | 1.7 | 0.00 | 0.00 | 0.00 | 87 | 1019.9 |
| 20260509044416 | 49 | 0.0 | 0.0 | 0.00 | 0.00 | 0.00 | 87 | 1019.8 | |
| 20260509043416 | 49 | 0.0 | 0.0 | 0.00 | 0.00 | 0.00 | 87 | 1019.7 | |
| 20260509041417 | 49 | 320 | 0.9 | 1.7 | 0.00 | 0.00 | 0.00 | 87 | 1019.6 |
| 20260509040417 | 49 | 342 | 1.7 | 2.6 | 0.00 | 0.00 | 0.00 | 86 | 1019.5 |
| 20260509035417 | 49 | 0.0 | 0.0 | 0.00 | 0.00 | 0.00 | 86 | 1019.6 | |
| 20260509034416 | 49 | 5 | 1.7 | 2.6 | 0.00 | 0.00 | 0.00 | 86 | 1019.4 |
| 20260509033417 | 49 | 27 | 0.9 | 2.6 | 0.00 | 0.00 | 0.00 | 86 | 1019.5 |
| 20260509032417 | 49 | 5 | 1.7 | 3.5 | 0.00 | 0.00 | 0.00 | 85 | 1019.5 |
| 20260509031417 | 49 | 5 | 2.6 | 2.6 | 0.00 | 0.00 | 0.00 | 85 | 1019.5 |
| 20260509030417 | 49 | 342 | 3.5 | 5.2 | 0.00 | 0.00 | 0.00 | 85 | 1019.6 |
| 20260509024416 | 49 | 5 | 2.6 | 4.3 | 0.00 | 0.00 | 0.00 | 84 | 1019.6 |
| 20260509023417 | 49 | 342 | 1.7 | 3.5 | 0.00 | 0.00 | 0.00 | 83 | 1019.7 |
| 20260509021417 | 49 | 342 | 1.7 | 2.6 | 0.00 | 0.00 | 0.00 | 83 | 1019.7 |
| 20260509020417 | 49 | 320 | 2.6 | 3.5 | 0.00 | 0.00 | 0.00 | 82 | 1019.5 |
| 20260509015416 | 50 | 5 | 1.7 | 4.3 | 0.00 | 0.00 | 0.00 | 82 | 1019.6 |
| 20260509014416 | 50 | 27 | 1.7 | 2.6 | 0.00 | 0.00 | 0.00 | 82 | 1019.6 |
| 20260509013417 | 50 | 342 | 1.7 | 2.6 | 0.00 | 0.00 | 0.00 | 82 | 1019.6 |
| 20260509012417 | 50 | 27 | 2.6 | 3.5 | 0.00 | 0.00 | 0.00 | 81 | 1019.6 |
| 20260509011416 | 50 | 27 | 1.7 | 3.5 | 0.00 | 0.00 | 0.00 | 81 | 1019.7 |
| 20260509010416 | 50 | 5 | 0.9 | 2.6 | 0.00 | 0.00 | 0.00 | 81 | 1019.7 |
| 20260509005417 | 50 | 342 | 1.7 | 2.6 | 0.00 | 0.00 | 0.00 | 80 | 1019.6 |
| 20260509004416 | 50 | 342 | 1.7 | 2.6 | 0.00 | 0.00 | 0.00 | 79 | 1019.6 |
| 20260509003416 | 50 | 5 | 0.9 | 1.7 | 0.00 | 0.00 | 0.00 | 79 | 1019.7 |
| 20260509002417 | 51 | 27 | 0.9 | 1.7 | 0.00 | 0.00 | 0.00 | 79 | 1019.6 |
| 20260509001417 | 51 | 5 | 2.6 | 5.2 | 0.00 | 0.00 | 0.00 | 78 | 1019.5 |
| 20260509000418 | 51 | 5 | 2.6 | 5.2 | 0.00 | 0.00 | 0.00 | 78 | 1019.5 |
| 20260508235416 | 51 | 5 | 0.9 | 1.7 | 0.00 | 0.00 | 0.00 | 77 | 1019.5 |
| 20260508234421 | 51 | 27 | 2.6 | 3.5 | 0.00 | 0.00 | 0.00 | 77 | 1019.6 |
| 20260508233416 | 51 | 5 | 0.9 | 2.6 | 0.00 | 0.00 | 0.00 | 76 | 1019.6 |
| 20260508232417 | 51 | 5 | 0.9 | 2.6 | 0.00 | 0.00 | 0.00 | 76 | 1019.6 |
| 20260508231416 | 51 | 27 | 2.6 | 3.5 | 0.00 | 0.00 | 0.00 | 76 | 1019.6 |
| 20260508230416 | 51 | 5 | 1.7 | 2.6 | 0.00 | 0.00 | 0.00 | 76 | 1019.6 |
| 20260508225416 | 51 | 27 | 0.9 | 1.7 | 0.00 | 0.00 | 0.00 | 75 | 1019.6 |
| 20260508223417 | 52 | 27 | 0.9 | 1.7 | 0.00 | 0.00 | 0.00 | 75 | 1019.6 |
| 20260508222416 | 52 | 5 | 0.9 | 1.7 | 0.00 | 0.00 | 0.00 | 75 | 1019.5 |
| 20260508221416 | 52 | 27 | 1.7 | 2.6 | 0.00 | 0.00 | 0.00 | 75 | 1019.5 |
| 20260508220416 | 52 | 27 | 1.7 | 2.6 | 0.00 | 0.00 | 0.00 | 75 | 1019.4 |
| 20260508214416 | 52 | 27 | 2.6 | 3.5 | 0.00 | 0.00 | 0.00 | 74 | 1019.2 |
| 20260508213416 | 53 | 27 | 1.7 | 1.7 | 0.00 | 0.00 | 0.00 | 73 | 1019.3 |
| 20260508212416 | 53 | 27 | 0.9 | 1.7 | 0.00 | 0.00 | 0.00 | 73 | 1019.2 |
| 20260508211416 | 53 | 27 | 1.7 | 5.2 | 0.00 | 0.00 | 0.00 | 72 | 1019.3 |
| 20260508210416 | 53 | 5 | 1.7 | 2.6 | 0.00 | 0.00 | 0.00 | 72 | 1019.2 |
| 20260508205416 | 54 | 27 | 2.6 | 5.2 | 0.00 | 0.00 | 0.00 | 71 | 1019.2 |
| 20260508203416 | 54 | 27 | 3.5 | 5.2 | 0.00 | 0.00 | 0.00 | 70 | 1018.9 |
| 20260508202416 | 54 | 27 | 2.6 | 5.2 | 0.00 | 0.00 | 0.00 | 70 | 1018.9 |
| 20260508201417 | 55 | 5 | 1.7 | 1.7 | 0.00 | 0.00 | 0.00 | 69 | 1018.7 |
| 20260508200416 | 55 | 342 | 2.6 | 3.5 | 0.00 | 0.00 | 0.00 | 68 | 1018.6 |
| 20260508194416 | 56 | 5 | 0.9 | 1.7 | 0.00 | 0.00 | 0.00 | 67 | 1018.4 |
| 20260508193416 | 56 | 342 | 0.9 | 1.7 | 0.00 | 0.00 | 0.00 | 67 | 1018.3 |
| 20260508192416 | 56 | 27 | 0.9 | 3.5 | 0.00 | 0.00 | 0.00 | 66 | 1018.1 |
| 20260508185416 | 57 | 27 | 0.9 | 1.7 | 0.00 | 0.00 | 0.00 | 66 | 1017.6 |
| 20260508184416 | 57 | 27 | 2.6 | 3.5 | 0.00 | 0.00 | 0.00 | 65 | 1017.6 |
| 20260508183415 | 58 | 27 | 3.5 | 6.1 | 0.00 | 0.00 | 0.00 | 66 | 1017.7 |
| 20260508181416 | 59 | 27 | 3.5 | 3.5 | 0.00 | 0.00 | 0.00 | 67 | 1017.5 |
| 20260508180415 | 59 | 27 | 3.5 | 6.1 | 0.00 | 0.00 | 0.00 | 67 | 1017.6 |
| 20260508175416 | 60 | 27 | 2.6 | 5.2 | 0.00 | 0.00 | 0.00 | 66 | 1017.5 |
| 20260508174415 | 60 | 27 | 1.7 | 4.3 | 0.00 | 0.00 | 0.00 | 66 | 1017.3 |
| 20260508173415 | 60 | 27 | 1.7 | 3.5 | 0.00 | 0.00 | 0.00 | 65 | 1017.2 |
| 20260508172416 | 61 | 5 | 1.7 | 4.3 | 0.00 | 0.00 | 0.00 | 64 | 1017.1 |
| 20260508171416 | 61 | 5 | 0.9 | 0.9 | 0.00 | 0.00 | 0.00 | 60 | 1017.0 |
| 20260508170416 | 61 | 5 | 0.9 | 1.7 | 0.00 | 0.00 | 0.00 | 62 | 1016.9 |
| 20260508165416 | 61 | 50 | 0.9 | 2.6 | 0.00 | 0.00 | 0.00 | 61 | 1016.8 |
| 20260508164415 | 61 | 27 | 3.5 | 7.0 | 0.00 | 0.00 | 0.00 | 62 | 1016.7 |
| 20260508163415 | 62 | 5 | 2.6 | 5.2 | 0.00 | 0.00 | 0.00 | 60 | 1016.9 |
| 20260508162416 | 62 | 5 | 0.9 | 1.7 | 0.00 | 0.00 | 0.00 | 58 | 1016.8 |
| 20260508161416 | 63 | 50 | 2.6 | 4.3 | 0.00 | 0.00 | 0.00 | 59 | 1016.7 |
| 20260508160415 | 62 | 27 | 4.3 | 6.1 | 0.00 | 0.00 | 0.00 | 61 | 1016.8 |
| 20260508154416 | 62 | 5 | 1.7 | 3.5 | 0.00 | 0.00 | 0.00 | 61 | 1016.9 |
| 20260508150415 | 61 | 0.0 | 0.9 | 0.00 | 0.00 | 0.00 | 62 | 1017.0 | |
| 20260508144415 | 62 | 95 | 1.7 | 2.6 | 0.00 | 0.00 | 0.00 | 63 | 1016.9 |
| 20260508143418 | 62 | 27 | 3.5 | 6.1 | 0.00 | 0.00 | 0.00 | 63 | 1017.1 |
| 20260508142418 | 62 | 5 | 5.2 | 7.8 | 0.00 | 0.00 | 0.00 | 63 | 1017.1 |
| 20260508141417 | 62 | 342 | 1.7 | 2.6 | 0.00 | 0.00 | 0.00 | 63 | 1017.1 |
| 20260508140418 | 62 | 5 | 1.7 | 3.5 | 0.00 | 0.00 | 0.00 | 63 | 1017.1 |
| 20260508135417 | 62 | 5 | 2.6 | 3.5 | 0.00 | 0.00 | 0.00 | 62 | 1017.3 |
| 20260508134418 | 62 | 27 | 0.9 | 2.6 | 0.00 | 0.00 | 0.00 | 60 | 1017.3 |
| 20260508133417 | 62 | 140 | 0.9 | 2.6 | 0.00 | 0.00 | 0.00 | 60 | 1017.3 |
| 20260508132417 | 62 | 117 | 1.7 | 2.6 | 0.00 | 0.00 | 0.00 | 59 | 1017.4 |
| 20260508131418 | 62 | 95 | 0.9 | 1.7 | 0.00 | 0.00 | 0.00 | 60 | 1017.3 |
| 20260508130417 | 62 | 72 | 1.7 | 6.1 | 0.00 | 0.00 | 0.00 | 59 | 1017.4 |
| 20260508125417 | 62 | 185 | 0.9 | 1.7 | 0.00 | 0.00 | 0.00 | 57 | 1017.5 |
| 20260508124418 | 62 | 117 | 0.9 | 2.6 | 0.00 | 0.00 | 0.00 | 59 | 1017.6 |
| 20260508123417 | 61 | 275 | 0.9 | 3.5 | 0.00 | 0.00 | 0.00 | 60 | 1017.6 |
| 20260508122417 | 60 | 95 | 0.9 | 1.7 | 0.00 | 0.00 | 0.00 | 62 | 1017.6 |
| 20260508121418 | 58 | 5 | 3.5 | 6.1 | 0.00 | 0.00 | 0.00 | 65 | 1017.7 |
| 20260508120418 | 57 | 0.0 | 0.9 | 0.00 | 0.00 | 0.00 | 65 | 1017.7 | |
| 20260508115418 | 57 | 0.0 | 1.7 | 0.00 | 0.00 | 0.00 | 67 | 1017.7 | |
| 20260508114418 | 57 | 207 | 1.7 | 3.5 | 0.00 | 0.00 | 0.00 | 65 | 1017.8 |
| 20260508112417 | 58 | 207 | 2.6 | 6.1 | 0.00 | 0.00 | 0.00 | 65 | 1017.7 |
| 20260508111417 | 58 | 72 | 1.7 | 3.5 | 0.00 | 0.00 | 0.00 | 65 | 1017.6 |
| 20260508110418 | 58 | 72 | 0.9 | 1.7 | 0.00 | 0.00 | 0.00 | 64 | 1017.7 |
| 20260508105417 | 58 | 185 | 3.5 | 7.8 | 0.00 | 0.00 | 0.00 | 61 | 1017.7 |
| 20260508104417 | 59 | 162 | 0.9 | 1.7 | 0.00 | 0.00 | 0.00 | 65 | 1017.7 |
| 20260508102417 | 61 | 95 | 2.6 | 6.1 | 0.00 | 0.00 | 0.00 | 63 | 1017.6 |
| 20260508101418 | 61 | 72 | 0.9 | 1.7 | 0.00 | 0.00 | 0.00 | 65 | 1017.5 |
| 20260508095418 | 60 | 117 | 0.9 | 1.7 | 0.00 | 0.00 | 0.00 | 68 | 1017.5 |
| 20260508094417 | 59 | 117 | 0.9 | 2.6 | 0.00 | 0.00 | 0.00 | 68 | 1017.4 |
| 20260508093418 | 58 | 185 | 1.7 | 2.6 | 0.00 | 0.00 | 0.00 | 70 | 1017.4 |
| 20260508092417 | 57 | 95 | 0.9 | 3.5 | 0.00 | 0.00 | 0.00 | 74 | 1017.5 |
| 20260508090418 | 54 | 27 | 2.6 | 3.5 | 0.00 | 0.00 | 0.00 | 77 | 1017.3 |
| 20260508085417 | 53 | 50 | 0.9 | 1.7 | 0.00 | 0.00 | 0.00 | 78 | 1017.2 |
| 20260508084417 | 53 | 342 | 1.7 | 2.6 | 0.00 | 0.00 | 0.00 | 79 | 1017.3 |
| 20260508083418 | 53 | 95 | 0.9 | 1.7 | 0.00 | 0.00 | 0.00 | 79 | 1017.1 |
| 20260508082418 | 53 | 95 | 1.7 | 2.6 | 0.00 | 0.00 | 0.00 | 79 | 1017.0 |
| 20260508081417 | 52 | 27 | 0.9 | 1.7 | 0.00 | 0.00 | 0.00 | 80 | 1016.9 |
| 20260508080417 | 52 | 140 | 1.7 | 1.7 | 0.00 | 0.00 | 0.00 | 79 | 1017.1 |
| 20260508075417 | 52 | 0.0 | 0.9 | 0.00 | 0.00 | 0.00 | 81 | 1017.1 | |
| 20260508073416 | 51 | 0.0 | 0.0 | 0.00 | 0.00 | 0.00 | 83 | 1017.1 | |
| 20260508071416 | 51 | 162 | 0.9 | 0.9 | 0.00 | 0.00 | 0.00 | 85 | 1016.7 |
| 20260508070418 | 50 | 95 | 0.9 | 1.7 | 0.00 | 0.00 | 0.00 | 86 | 1016.6 |
| 20260508065418 | 49 | 0.0 | 0.0 | 0.00 | 0.00 | 0.00 | 88 | 1016.7 |